Terminal Aerodrome Forecast
Issued by NWS

Home | Current Version | Previous Version | Text Only | Print | Product List | Glossary On
Versions: 1 2 3 4 5 6 7 8 9 10 11 12 13 14 15
635
FTUS45 KVEF 281925 AAA
TAFBIH
TAF AMD
KBIH 281925Z 2819/2918 13010KT P6SM VCSH BKN100
     FM282000 16010G18KT P6SM VCTS SCT060CB BKN100
      TEMPO 2820/2823 -SHRA SCT050 BKN070
     FM290100 VRB06KT P6SM VCSH BKN100
     FM290600 33006KT P6SM BKN250
     FM291400 VRB06KT P6SM SCT250=

USA.gov is the U.S. government's official web portal to all federal, state and local government web resources and services.